createdAt,value
2017-09-23T00:01:33.627Z,14.18
2017-09-23T00:04:02.867Z,14.19
2017-09-23T00:06:32.120Z,14.16
2017-09-23T00:09:02.520Z,14.11
2017-09-23T00:11:33.216Z,14.12
2017-09-23T00:14:02.424Z,14.07
2017-09-23T00:16:32.806Z,14.05
2017-09-23T00:19:02.592Z,14.06
2017-09-23T00:21:31.864Z,14.08
2017-09-23T00:24:01.242Z,14.02
2017-09-23T00:26:30.597Z,13.98
2017-09-23T00:28:59.767Z,13.94
2017-09-23T00:31:29.818Z,13.86
2017-09-23T00:33:59.000Z,13.81
2017-09-23T00:36:28.177Z,13.76
2017-09-23T00:38:57.679Z,13.76
2017-09-23T00:41:26.877Z,13.72
2017-09-23T00:43:56.100Z,13.78
2017-09-23T00:46:25.302Z,13.75
2017-09-23T00:48:55.190Z,13.74
2017-09-23T00:51:25.183Z,13.73
2017-09-23T00:53:55.214Z,13.76
2017-09-23T00:56:24.430Z,13.75
2017-09-23T00:58:53.606Z,13.66
2017-09-23T01:01:22.805Z,13.66
2017-09-23T01:03:51.985Z,13.63
2017-09-23T01:06:21.152Z,13.65
2017-09-23T01:08:50.484Z,13.63
2017-09-23T01:11:19.796Z,13.59
2017-09-23T01:13:48.963Z,13.62
2017-09-23T01:16:20.016Z,13.60
2017-09-23T01:18:50.910Z,13.67
2017-09-23T01:21:20.849Z,13.71
2017-09-23T01:23:51.025Z,13.74
2017-09-23T01:26:20.998Z,13.76
2017-09-23T01:28:50.509Z,13.75
2017-09-23T01:31:20.768Z,13.79
2017-09-23T01:33:49.933Z,13.85
2017-09-23T01:36:19.414Z,13.82
2017-09-23T01:38:48.561Z,13.77
2017-09-23T01:41:17.733Z,13.79
2017-09-23T01:43:47.162Z,13.83
2017-09-23T01:46:16.354Z,13.85
2017-09-23T01:48:45.550Z,13.91
2017-09-23T01:51:14.925Z,13.91
2017-09-23T01:53:44.850Z,13.97
2017-09-23T01:56:14.042Z,14.02
2017-09-23T01:58:43.328Z,14.04
2017-09-23T02:01:12.496Z,13.99
2017-09-23T02:03:41.654Z,13.96
2017-09-23T02:06:11.039Z,13.98
2017-09-23T02:08:40.267Z,14.03
2017-09-23T02:11:09.459Z,13.96
2017-09-23T02:13:38.924Z,13.98
2017-09-23T02:16:08.072Z,14.00
2017-09-23T02:18:37.285Z,14.04
2017-09-23T02:21:07.769Z,14.11
2017-09-23T02:23:36.959Z,14.15
2017-09-23T02:26:06.166Z,14.11
2017-09-23T02:28:35.542Z,14.10
2017-09-23T02:31:04.742Z,14.02
2017-09-23T02:33:33.924Z,13.94
2017-09-23T02:36:03.522Z,13.84
2017-09-23T02:38:33.503Z,13.81
2017-09-23T02:41:02.874Z,13.82
2017-09-23T02:43:32.284Z,13.84
2017-09-23T02:46:01.461Z,13.92
2017-09-23T02:48:30.633Z,13.98
2017-09-23T02:50:59.961Z,13.94
2017-09-23T02:53:29.158Z,13.94
2017-09-23T02:55:59.131Z,13.94
2017-09-23T02:58:28.732Z,13.98
2017-09-23T03:00:58.669Z,14.00
2017-09-23T03:03:27.849Z,14.04
2017-09-23T03:05:57.352Z,14.10
2017-09-23T03:08:26.565Z,14.14
2017-09-23T03:10:55.725Z,14.09
2017-09-23T03:13:25.096Z,14.09
2017-09-23T03:15:54.260Z,14.10
2017-09-23T03:18:23.408Z,14.10
2017-09-23T03:20:52.879Z,14.07
2017-09-23T03:23:22.046Z,14.10
2017-09-23T03:25:51.246Z,14.13
2017-09-23T03:28:20.575Z,14.16
2017-09-23T03:30:50.489Z,14.12
2017-09-23T03:33:19.677Z,14.03
2017-09-23T03:35:50.214Z,14.04
2017-09-23T03:38:19.387Z,14.10
2017-09-23T03:40:48.665Z,14.09
2017-09-23T03:43:18.161Z,13.96
2017-09-23T03:45:48.486Z,13.87
2017-09-23T03:48:17.674Z,13.83
2017-09-23T03:50:47.081Z,13.81
2017-09-23T03:53:19.051Z,13.77
2017-09-23T03:55:48.569Z,13.77
2017-09-23T03:58:17.728Z,13.70
2017-09-23T04:00:46.970Z,13.65
2017-09-23T04:03:16.398Z,13.61
2017-09-23T04:05:46.337Z,13.63
2017-09-23T04:08:15.513Z,13.63
2017-09-23T04:10:45.023Z,13.69
2017-09-23T04:13:14.209Z,13.77
2017-09-23T04:15:43.487Z,13.82
2017-09-23T04:18:13.131Z,13.89
2017-09-23T04:20:43.144Z,13.94
2017-09-23T04:23:12.385Z,13.99
2017-09-23T04:25:41.847Z,14.06
2017-09-23T04:28:13.638Z,14.09
2017-09-23T04:30:43.038Z,14.12
2017-09-23T04:33:12.211Z,14.14
2017-09-23T04:35:42.106Z,14.06
2017-09-23T04:38:12.202Z,14.11
2017-09-23T04:40:41.332Z,14.16
2017-09-23T04:43:10.444Z,14.18
2017-09-23T04:45:39.853Z,14.14
2017-09-23T04:48:08.969Z,14.18
2017-09-23T04:50:38.599Z,14.15
2017-09-23T04:53:07.853Z,14.14
2017-09-23T04:55:36.990Z,14.03
2017-09-23T04:58:06.141Z,13.99
2017-09-23T05:00:35.754Z,14.01
2017-09-23T05:03:04.952Z,14.05
2017-09-23T05:05:34.872Z,14.08
2017-09-23T05:08:04.283Z,14.11
2017-09-23T05:10:50.367Z,14.14
2017-09-23T05:13:19.910Z,14.13
2017-09-23T05:15:49.805Z,14.15
2017-09-23T05:18:19.750Z,14.16
2017-09-23T05:20:48.898Z,14.12
2017-09-23T05:23:18.779Z,14.15
2017-09-23T05:25:48.901Z,14.16
2017-09-23T05:28:19.099Z,14.20
2017-09-23T05:30:48.970Z,14.20
2017-09-23T05:33:18.148Z,14.27
2017-09-23T05:35:47.566Z,14.29
2017-09-23T05:38:17.438Z,14.34
2017-09-23T05:40:46.612Z,14.35
2017-09-23T05:43:15.756Z,14.38
2017-09-23T05:45:44.880Z,14.41
2017-09-23T05:48:14.011Z,14.48
2017-09-23T05:50:43.352Z,14.47
2017-09-23T05:53:12.514Z,14.44
2017-09-23T05:55:41.619Z,14.34
2017-09-23T05:58:11.089Z,14.32
2017-09-23T06:00:40.209Z,14.33
2017-09-23T06:03:10.113Z,14.27
2017-09-23T06:05:40.089Z,14.29
2017-09-23T06:08:09.283Z,14.38
2017-09-23T06:10:39.189Z,14.45
2017-09-23T06:13:08.727Z,14.45
2017-09-23T06:15:37.847Z,14.48
2017-09-23T06:18:06.996Z,14.58
2017-09-23T06:20:36.314Z,14.68
2017-09-23T06:23:05.465Z,14.61
2017-09-23T06:25:34.663Z,14.72
2017-09-23T06:28:04.808Z,14.80
2017-09-23T06:30:35.147Z,14.82
2017-09-23T06:33:04.504Z,14.85
2017-09-23T06:35:33.890Z,14.89
2017-09-23T06:38:03.152Z,14.96
2017-09-23T06:40:32.415Z,15.06
2017-09-23T06:43:01.948Z,15.12
2017-09-23T06:45:31.124Z,15.05
2017-09-23T06:48:01.430Z,15.05
2017-09-23T06:50:31.025Z,15.04
2017-09-23T06:53:00.875Z,15.14
2017-09-23T06:55:30.107Z,15.23
2017-09-23T06:57:59.278Z,15.26
2017-09-23T07:00:29.233Z,15.30
2017-09-23T07:02:58.438Z,15.37
2017-09-23T07:05:27.758Z,15.42
2017-09-23T07:07:57.012Z,15.41
2017-09-23T07:10:26.255Z,15.56
2017-09-23T07:12:55.613Z,15.60
2017-09-23T07:15:24.819Z,15.73
2017-09-23T07:17:53.974Z,15.76
2017-09-23T07:20:24.384Z,15.80
2017-09-23T07:22:55.257Z,15.91
2017-09-23T07:25:24.487Z,15.89
2017-09-23T07:27:53.965Z,15.90
2017-09-23T07:30:23.093Z,16.09
2017-09-23T07:32:52.239Z,16.15
2017-09-23T07:35:22.172Z,16.33
2017-09-23T07:37:52.400Z,16.48
2017-09-23T07:40:21.574Z,16.62
2017-09-23T07:42:51.042Z,16.68
2017-09-23T07:45:20.158Z,16.84
2017-09-23T07:47:49.326Z,16.73
2017-09-23T07:50:19.014Z,16.79
2017-09-23T07:52:48.125Z,16.74
2017-09-23T07:55:17.248Z,16.81
2017-09-23T07:57:47.493Z,16.88
2017-09-23T08:00:16.590Z,16.84
2017-09-23T08:02:45.681Z,16.96
2017-09-23T08:05:14.985Z,16.65
2017-09-23T08:07:44.089Z,16.59
2017-09-23T08:10:13.184Z,16.74
2017-09-23T08:12:42.318Z,16.92
2017-09-23T08:15:11.468Z,17.12
2017-09-23T08:17:40.561Z,17.17
2017-09-23T08:20:10.048Z,16.87
2017-09-23T08:22:39.197Z,16.94
2017-09-23T08:25:08.315Z,17.14
2017-09-23T08:27:37.814Z,17.22
2017-09-23T08:30:06.967Z,17.40
2017-09-23T08:32:36.187Z,17.35
2017-09-23T08:35:06.313Z,17.13
2017-09-23T08:37:35.943Z,16.89
2017-09-23T08:40:05.081Z,17.23
2017-09-23T08:42:35.860Z,17.57
2017-09-23T08:45:05.953Z,17.79
2017-09-23T08:47:35.131Z,18.15
2017-09-23T08:50:05.320Z,18.66
2017-09-23T08:52:34.406Z,19.04
2017-09-23T08:55:03.608Z,19.30
2017-09-23T08:57:33.173Z,19.36
2017-09-23T09:00:02.356Z,19.24
2017-09-23T09:02:32.474Z,19.50
2017-09-23T09:05:01.755Z,19.59
2017-09-23T09:07:30.874Z,20.17
2017-09-23T09:10:00.030Z,20.30
2017-09-23T09:12:29.577Z,20.67
2017-09-23T09:15:00.076Z,20.83
2017-09-23T09:17:29.993Z,20.28
2017-09-23T09:19:59.423Z,20.30
2017-09-23T09:22:28.566Z,20.33
2017-09-23T09:24:58.467Z,20.49
2017-09-23T09:27:27.978Z,20.91
2017-09-23T09:29:57.187Z,20.25
2017-09-23T09:32:26.311Z,20.70
2017-09-23T09:34:56.650Z,21.05
2017-09-23T09:37:25.765Z,21.10
2017-09-23T09:39:55.086Z,21.45
2017-09-23T09:42:25.287Z,21.47
2017-09-23T09:44:54.474Z,21.58
2017-09-23T09:47:25.456Z,21.38
2017-09-23T09:49:54.734Z,21.36
2017-09-23T09:52:24.856Z,21.54
2017-09-23T09:54:54.000Z,21.78
2017-09-23T09:57:23.908Z,21.93
2017-09-23T09:59:53.009Z,22.07
2017-09-23T10:02:22.154Z,22.63
2017-09-23T10:04:53.345Z,22.53
2017-09-23T10:07:22.606Z,23.12
2017-09-23T10:09:51.779Z,22.67
2017-09-23T10:12:21.483Z,23.18
2017-09-23T10:14:50.599Z,22.96
2017-09-23T10:17:20.640Z,22.75
2017-09-23T10:19:50.049Z,22.57
2017-09-23T10:22:19.142Z,22.92
2017-09-23T10:24:48.627Z,22.99
2017-09-23T10:27:18.282Z,22.34
2017-09-23T10:29:48.348Z,22.09
2017-09-23T10:32:18.804Z,22.22
2017-09-23T10:34:48.026Z,21.60
2017-09-23T10:37:17.102Z,22.10
2017-09-23T10:39:46.208Z,22.65
2017-09-23T10:42:16.498Z,22.73
2017-09-23T10:44:46.554Z,23.17
2017-09-23T10:47:15.663Z,23.89
2017-09-23T10:49:45.120Z,24.26
2017-09-23T10:52:14.205Z,24.24
2017-09-23T10:54:44.449Z,24.08
2017-09-23T10:57:14.029Z,23.37
2017-09-23T10:59:43.161Z,22.79
2017-09-23T11:02:12.340Z,22.10
2017-09-23T11:04:41.694Z,22.49
2017-09-23T11:07:10.789Z,23.08
2017-09-23T11:09:41.726Z,23.18
2017-09-23T11:12:12.541Z,23.55
2017-09-23T11:14:42.769Z,22.71
2017-09-23T11:17:11.908Z,22.46
2017-09-23T11:19:41.383Z,21.96
2017-09-23T11:22:10.518Z,20.97
2017-09-23T11:24:40.697Z,20.72
2017-09-23T11:27:11.797Z,20.19
2017-09-23T11:29:41.114Z,19.97
2017-09-23T11:32:11.343Z,20.77
2017-09-23T11:34:40.925Z,21.49
2017-09-23T11:37:11.815Z,22.02
2017-09-23T11:39:41.341Z,22.64
2017-09-23T11:42:10.561Z,22.96
2017-09-23T11:44:39.694Z,23.57
2017-09-23T11:47:09.775Z,23.88
2017-09-23T11:49:40.069Z,24.05
2017-09-23T11:52:09.249Z,23.85
2017-09-23T11:54:38.780Z,23.78
2017-09-23T11:57:12.681Z,23.47
2017-09-23T11:59:44.096Z,23.07
2017-09-23T12:02:15.214Z,23.19
2017-09-23T12:04:49.541Z,23.18
2017-09-23T12:07:20.219Z,22.34
2017-09-23T12:09:50.535Z,21.91
2017-09-23T12:12:19.681Z,21.55
2017-09-23T12:14:48.799Z,21.88
2017-09-23T12:17:18.214Z,21.93
2017-09-23T12:19:48.126Z,22.37
2017-09-23T12:22:17.296Z,23.22
2017-09-23T12:24:47.209Z,24.29
2017-09-23T12:27:16.306Z,24.50
2017-09-23T12:29:45.661Z,24.57
2017-09-23T12:32:15.753Z,24.17
2017-09-23T12:34:44.923Z,23.54
2017-09-23T12:37:15.258Z,22.88
2017-09-23T12:39:47.110Z,22.46
2017-09-23T12:42:16.952Z,22.02
2017-09-23T12:44:46.114Z,21.73
2017-09-23T12:47:15.878Z,21.52
2017-09-23T12:49:45.053Z,21.52
2017-09-23T12:52:14.974Z,22.17
2017-09-23T12:54:44.656Z,22.92
2017-09-23T12:57:14.527Z,23.23
2017-09-23T12:59:44.456Z,22.47
2017-09-23T13:02:13.899Z,22.91
2017-09-23T13:04:43.059Z,23.14
2017-09-23T13:07:12.192Z,23.10
2017-09-23T13:09:43.326Z,23.07
2017-09-23T13:12:13.243Z,23.03
2017-09-23T13:14:42.348Z,23.19
2017-09-23T13:17:11.983Z,22.26
2017-09-23T13:19:41.142Z,22.58
2017-09-23T13:22:10.236Z,21.88
2017-09-23T13:24:39.668Z,21.21
2017-09-23T13:27:08.864Z,21.03
2017-09-23T13:29:39.086Z,21.09
2017-09-23T13:32:08.488Z,20.98
2017-09-23T13:34:37.678Z,20.52
2017-09-23T13:37:06.843Z,19.73
2017-09-23T13:39:40.591Z,19.18
2017-09-23T13:42:16.631Z,18.97
2017-09-23T13:44:49.231Z,18.53
2017-09-23T13:47:18.877Z,18.47
2017-09-23T13:49:48.758Z,18.32
2017-09-23T13:52:18.263Z,18.38
2017-09-23T13:54:47.381Z,18.66
2017-09-23T13:57:16.475Z,18.87
2017-09-23T13:59:45.881Z,18.97
2017-09-23T14:02:15.048Z,19.10
2017-09-23T14:04:44.151Z,19.10
2017-09-23T14:07:13.550Z,19.05
2017-09-23T14:09:42.646Z,19.08
2017-09-23T14:12:12.579Z,18.95
2017-09-23T14:14:42.818Z,18.51
2017-09-23T14:17:11.955Z,18.14
2017-09-23T14:19:41.101Z,18.02
2017-09-23T14:22:11.401Z,18.15
2017-09-23T14:24:40.601Z,18.13
2017-09-23T14:27:10.474Z,18.13
2017-09-23T14:29:39.943Z,18.14
2017-09-23T14:32:09.248Z,17.93
2017-09-23T14:34:38.348Z,18.00
2017-09-23T14:37:08.214Z,18.04
2017-09-23T14:39:37.361Z,18.07
2017-09-23T14:42:06.464Z,18.16
2017-09-23T14:44:35.927Z,18.09
2017-09-23T14:47:05.040Z,18.16
2017-09-23T14:49:35.217Z,18.09
2017-09-23T14:52:04.384Z,18.11
2017-09-23T14:54:33.555Z,18.26
2017-09-23T14:57:03.489Z,18.39
2017-09-23T14:59:32.671Z,18.47
2017-09-23T15:02:01.789Z,18.28
2017-09-23T15:04:30.932Z,18.12
2017-09-23T15:07:00.299Z,17.87
2017-09-23T15:09:29.431Z,17.86
2017-09-23T15:12:00.361Z,17.55
2017-09-23T15:14:29.922Z,17.64
2017-09-23T15:16:59.026Z,17.80
2017-09-23T15:19:28.225Z,17.83
2017-09-23T15:22:01.417Z,17.89
2017-09-23T15:24:35.992Z,17.94
2017-09-23T15:27:06.327Z,17.89
2017-09-23T15:29:39.740Z,17.91
2017-09-23T15:32:11.973Z,17.83
2017-09-23T15:34:42.402Z,17.82
2017-09-23T15:37:11.546Z,17.81
2017-09-23T15:39:46.675Z,17.78
2017-09-23T15:42:16.666Z,17.59
2017-09-23T15:44:45.865Z,17.41
2017-09-23T15:47:16.640Z,17.26
2017-09-23T15:49:47.139Z,17.27
2017-09-23T15:52:16.271Z,17.28
2017-09-23T15:54:47.915Z,17.27
2017-09-23T15:57:17.174Z,17.37
2017-09-23T15:59:48.349Z,17.24
2017-09-23T16:02:17.939Z,17.29
2017-09-23T16:04:48.798Z,17.38
2017-09-23T16:07:18.922Z,17.40
2017-09-23T16:09:48.065Z,17.37
2017-09-23T16:12:17.225Z,17.31
2017-09-23T16:14:49.124Z,17.16
2017-09-23T16:17:19.140Z,17.09
2017-09-23T16:19:48.584Z,16.96
2017-09-23T16:22:18.411Z,16.81
2017-09-23T16:24:53.194Z,16.96
2017-09-23T16:27:23.506Z,17.01
2017-09-23T16:29:55.120Z,16.91
2017-09-23T16:32:25.711Z,16.78
2017-09-23T16:34:54.844Z,16.67
2017-09-23T16:37:24.092Z,16.68
2017-09-23T16:39:55.305Z,16.70
2017-09-23T16:42:24.387Z,16.67
2017-09-23T16:44:53.475Z,16.45
2017-09-23T16:47:24.860Z,16.32
2017-09-23T16:49:54.768Z,16.19
2017-09-23T16:52:24.046Z,16.18
2017-09-23T16:54:54.128Z,16.18
2017-09-23T16:57:23.254Z,16.22
2017-09-23T16:59:53.096Z,16.27
2017-09-23T17:02:22.398Z,16.34
2017-09-23T17:04:51.502Z,16.37
2017-09-23T17:07:20.672Z,16.16
2017-09-23T17:09:50.094Z,16.03
2017-09-23T17:12:19.403Z,15.94
2017-09-23T17:14:48.523Z,15.87
2017-09-23T17:17:18.312Z,15.83
2017-09-23T17:19:47.803Z,15.78
2017-09-23T17:22:16.903Z,15.75
2017-09-23T17:24:46.065Z,15.76
2017-09-23T17:27:15.190Z,15.63
2017-09-23T17:29:45.555Z,15.69
2017-09-23T17:32:17.635Z,15.77
2017-09-23T17:34:47.159Z,15.85
2017-09-23T17:37:19.010Z,15.91
2017-09-23T17:39:48.486Z,15.89
2017-09-23T17:42:18.719Z,15.92
2017-09-23T17:44:47.929Z,15.78
2017-09-23T17:47:18.023Z,15.72
2017-09-23T17:49:50.341Z,15.58
2017-09-23T17:52:20.738Z,15.52
2017-09-23T17:54:50.028Z,15.49
2017-09-23T17:57:19.408Z,15.43
2017-09-23T17:59:49.261Z,15.27
2017-09-23T18:02:18.505Z,15.21
2017-09-23T18:04:48.418Z,15.19
2017-09-23T18:07:17.917Z,15.19
2017-09-23T18:09:48.089Z,15.17
2017-09-23T18:12:17.856Z,15.11
2017-09-23T18:14:47.417Z,15.07
2017-09-23T18:17:16.512Z,15.02
2017-09-23T18:19:47.553Z,15.00
2017-09-23T18:22:17.051Z,14.95
2017-09-23T18:24:49.219Z,14.88
2017-09-23T18:27:18.900Z,14.87
2017-09-23T18:29:50.311Z,14.80
2017-09-23T18:32:19.968Z,14.79
2017-09-23T18:34:49.102Z,14.75
2017-09-23T18:37:18.270Z,14.73
2017-09-23T18:39:47.818Z,14.70
2017-09-23T18:42:16.985Z,14.68
2017-09-23T18:44:46.876Z,14.69
2017-09-23T18:47:16.778Z,14.66
2017-09-23T18:49:45.893Z,14.68
2017-09-23T18:52:15.018Z,14.65
2017-09-23T18:54:44.576Z,14.61
2017-09-23T18:57:13.721Z,14.56
2017-09-23T18:59:43.665Z,14.58
2017-09-23T19:02:13.205Z,14.57
2017-09-23T19:04:43.149Z,14.50
2017-09-23T19:07:12.275Z,14.43
2017-09-23T19:09:42.121Z,14.39
2017-09-23T19:12:11.266Z,14.29
2017-09-23T19:14:41.073Z,14.28
2017-09-23T19:17:11.809Z,14.30
2017-09-23T19:19:41.662Z,14.22
2017-09-23T19:22:10.794Z,14.19
2017-09-23T19:24:40.157Z,14.22
2017-09-23T19:27:10.204Z,14.21
2017-09-23T19:29:39.503Z,14.22
2017-09-23T19:32:08.753Z,14.27
2017-09-23T19:34:38.596Z,14.31
2017-09-23T19:37:08.978Z,14.40
2017-09-23T19:39:39.337Z,14.44
2017-09-23T19:42:09.258Z,14.52
2017-09-23T19:44:38.453Z,14.54
2017-09-23T19:47:07.870Z,14.51
2017-09-23T19:49:37.363Z,14.61
2017-09-23T19:52:06.563Z,14.60
2017-09-23T19:54:37.877Z,14.67
2017-09-23T19:57:07.157Z,14.60
2017-09-23T19:59:36.405Z,14.45
2017-09-23T20:02:06.039Z,14.44
2017-09-23T20:04:35.439Z,14.47
2017-09-23T20:07:04.761Z,14.52
2017-09-23T20:09:34.360Z,14.44
2017-09-23T20:12:03.959Z,14.39
2017-09-23T20:14:33.208Z,14.38
2017-09-23T20:17:02.540Z,14.44
2017-09-23T20:19:33.081Z,14.47
2017-09-23T20:22:02.388Z,14.53
2017-09-23T20:24:32.195Z,14.50
2017-09-23T20:27:01.462Z,14.55
2017-09-23T20:29:30.935Z,14.51
2017-09-23T20:32:00.360Z,14.56
2017-09-23T20:34:30.255Z,14.59
2017-09-23T20:36:59.421Z,14.58
2017-09-23T20:39:29.715Z,14.57
2017-09-23T20:41:59.595Z,14.59
2017-09-23T20:44:28.736Z,14.59
2017-09-23T20:46:58.980Z,14.52
2017-09-23T20:49:28.088Z,14.46
2017-09-23T20:51:57.217Z,14.38
2017-09-23T20:54:26.591Z,14.36
2017-09-23T20:56:57.455Z,14.27
2017-09-23T20:59:28.499Z,14.24
2017-09-23T21:01:57.646Z,14.20
2017-09-23T21:04:28.942Z,14.23
2017-09-23T21:06:58.311Z,14.26
2017-09-23T21:09:27.417Z,14.24
2017-09-23T21:11:57.682Z,14.20
2017-09-23T21:14:26.856Z,14.20
2017-09-23T21:16:55.970Z,14.19
2017-09-23T21:19:25.159Z,14.25
2017-09-23T21:21:54.540Z,14.35
2017-09-23T21:24:24.436Z,14.39
2017-09-23T21:26:53.608Z,14.44
2017-09-23T21:29:24.007Z,14.43
2017-09-23T21:31:53.388Z,14.46
2017-09-23T21:34:24.204Z,14.56
2017-09-23T21:36:54.611Z,14.57
2017-09-23T21:39:24.538Z,14.49
2017-09-23T21:41:53.664Z,14.52
2017-09-23T21:44:23.241Z,14.47
2017-09-23T21:46:52.421Z,14.54
2017-09-23T21:49:21.844Z,14.54
2017-09-23T21:51:51.208Z,14.46
2017-09-23T21:54:20.317Z,14.41
2017-09-23T21:56:49.483Z,14.48
2017-09-23T21:59:20.123Z,14.49
2017-09-23T22:01:50.179Z,14.48
2017-09-23T22:04:20.336Z,14.47
2017-09-23T22:06:50.817Z,14.56
2017-09-23T22:09:19.977Z,14.60
2017-09-23T22:11:49.354Z,14.62
2017-09-23T22:14:19.232Z,14.68
2017-09-23T22:16:48.400Z,14.70
2017-09-23T22:19:17.935Z,14.63
2017-09-23T22:21:47.159Z,14.56
2017-09-23T22:24:17.122Z,14.58
2017-09-23T22:26:46.639Z,14.59
2017-09-23T22:29:16.809Z,14.70
2017-09-23T22:31:46.209Z,14.78
2017-09-23T22:34:15.458Z,14.75
2017-09-23T22:36:44.671Z,14.76
2017-09-23T22:39:14.655Z,14.59
2017-09-23T22:41:43.914Z,14.56
2017-09-23T22:44:14.009Z,14.53
2017-09-23T22:46:43.415Z,14.52
2017-09-23T22:49:14.478Z,14.54
2017-09-23T22:51:43.739Z,14.54
2017-09-23T22:54:12.869Z,14.45
2017-09-23T22:56:42.391Z,14.55
2017-09-23T22:59:11.607Z,14.70
2017-09-23T23:01:40.781Z,14.80
2017-09-23T23:04:11.136Z,14.83
2017-09-23T23:06:40.390Z,14.90
2017-09-23T23:09:10.493Z,14.81
2017-09-23T23:11:40.222Z,14.83
2017-09-23T23:14:09.574Z,14.76
2017-09-23T23:16:38.946Z,14.77
2017-09-23T23:19:09.033Z,14.78
2017-09-23T23:21:39.260Z,14.75
2017-09-23T23:24:09.581Z,14.68
2017-09-23T23:26:38.925Z,14.73
2017-09-23T23:29:08.999Z,14.66
2017-09-23T23:31:38.359Z,14.72
2017-09-23T23:34:07.531Z,14.77
2017-09-23T23:36:36.726Z,14.80
2017-09-23T23:39:06.024Z,14.84
2017-09-23T23:41:35.272Z,14.85
2017-09-23T23:44:05.350Z,14.86
2017-09-23T23:46:34.682Z,14.83
2017-09-23T23:49:03.922Z,14.79
2017-09-23T23:51:33.343Z,14.74
2017-09-23T23:54:03.589Z,14.68
2017-09-23T23:56:32.762Z,14.67
2017-09-23T23:59:02.035Z,14.68
